createdAt,value
2023-05-16T19:59:03.904Z,61.38
2023-05-16T20:04:00.705Z,61.23
2023-05-16T20:09:00.565Z,61.64
2023-05-16T20:13:59.504Z,62.08
2023-05-16T20:18:56.261Z,62.14
2023-05-16T20:23:52.879Z,62.35
2023-05-16T20:28:49.382Z,62.75
2023-05-16T20:33:46.797Z,62.74
2023-05-16T20:38:43.525Z,62.96
2023-05-16T20:43:40.090Z,62.95
2023-05-16T20:48:36.699Z,63.19
2023-05-16T20:53:33.172Z,62.35
2023-05-16T20:58:29.812Z,63.22
2023-05-16T21:03:26.720Z,63.54
2023-05-16T21:08:23.362Z,63.71
2023-05-16T21:13:19.875Z,63.57
2023-05-16T21:18:17.459Z,64.27
2023-05-16T21:23:15.776Z,64.08
2023-05-16T21:28:12.388Z,64.53
2023-05-16T21:33:09.073Z,64.23
2023-05-16T21:38:05.860Z,64.72
2023-05-16T21:43:02.270Z,63.79
2023-05-16T21:47:58.915Z,63.65
2023-05-16T21:52:55.382Z,63.64
2023-05-16T21:57:51.904Z,64.12
2023-05-16T22:02:48.791Z,64.29
2023-05-16T22:07:45.904Z,64.46
2023-05-16T22:12:42.487Z,64.60
2023-05-16T22:17:39.679Z,64.49
2023-05-16T22:22:36.341Z,65.03
2023-05-16T22:27:37.247Z,64.91
2023-05-16T22:32:33.854Z,64.83
2023-05-16T22:37:30.518Z,65.16
2023-05-16T22:42:27.106Z,65.24
2023-05-16T22:47:23.696Z,65.02
2023-05-16T22:52:21.924Z,65.36
2023-05-16T22:57:18.545Z,65.75
2023-05-16T23:02:15.126Z,65.34
2023-05-16T23:07:11.655Z,65.49
2023-05-16T23:12:08.631Z,65.74
2023-05-16T23:17:05.516Z,66.04
2023-05-16T23:22:03.416Z,65.86
2023-05-16T23:26:59.944Z,65.99
2023-05-16T23:31:56.545Z,65.63
2023-05-16T23:36:53.114Z,65.83
2023-05-16T23:41:49.712Z,65.81
2023-05-16T23:46:46.275Z,65.98
2023-05-16T23:51:56.894Z,65.81
2023-05-16T23:56:54.710Z,65.70
